VG63 weather

Federal Reserve Heliport
Richmond, Virginia, United States

Public forecast

Using degrees Fahrenheit for public forecast. Weather courtesy of forecast.io.

Closest aviation weather report (METAR) to Federal Reserve Heliport

Closest report is Hanover County Municipal Airport, 11.5 nm (21.4 km) ENE. Retrieved 2020/07/06 16:54 UTC (1 hour ago):

KOFP 061654Z AUTO 20007KT 10SM CLR 33/21 A3006 RMK AO2 SLP177 T03330211

Closest aviation forecast (TAF) to Federal Reserve Heliport

Closest forecast is Richmond International Airport, 16.8 nm (31.1 km) ESE. Retrieved 2020/07/06 18:51 UTC (0 seconds ago):

TAF KRIC 061740Z 0618/0718 19009KT P6SM SCT050 FM062100 18010KT P6SM VCTS SCT050CB BKN070 FM070200 18005KT P6SM BKN080 FM070700 19004KT P6SM SCT150